createdAt,value
2019-05-26T00:04:18.319Z,62.59
2019-05-26T00:09:23.269Z,62.92
2019-05-26T00:14:27.822Z,62.70
2019-05-26T00:19:32.359Z,62.79
2019-05-26T00:24:36.681Z,63.08
2019-05-26T00:29:41.067Z,63.08
2019-05-26T00:34:45.376Z,62.96
2019-05-26T00:39:49.588Z,63.26
2019-05-26T00:44:53.914Z,63.17
2019-05-26T00:49:58.181Z,63.17
2019-05-26T00:55:02.698Z,62.98
2019-05-26T01:00:07.211Z,63.12
2019-05-26T01:05:11.999Z,63.12
2019-05-26T01:10:16.301Z,63.50
2019-05-26T01:15:20.668Z,63.47
2019-05-26T01:20:24.952Z,63.65
2019-05-26T01:25:29.246Z,63.65
2019-05-26T01:30:38.094Z,63.91
2019-05-26T01:35:42.565Z,63.91
2019-05-26T01:40:47.543Z,63.65
2019-05-26T01:45:51.963Z,63.87
2019-05-26T01:50:56.465Z,63.87
2019-05-26T01:56:00.869Z,63.89
2019-05-26T02:01:05.283Z,63.79
2019-05-26T02:06:09.447Z,64.02
2019-05-26T02:11:13.732Z,63.65
2019-05-26T02:16:18.141Z,63.65
2019-05-26T02:21:22.292Z,63.96
2019-05-26T02:26:26.581Z,64.40
2019-05-26T02:31:30.834Z,64.49
2019-05-26T02:36:35.259Z,64.53
2019-05-26T02:41:39.608Z,64.89
2019-05-26T02:46:44.031Z,64.98
2019-05-26T02:51:48.341Z,64.92
2019-05-26T02:56:52.606Z,65.00
2019-05-26T03:02:03.699Z,65.00
2019-05-26T03:07:03.665Z,65.20
2019-05-26T03:12:07.894Z,65.42
2019-05-26T03:17:12.142Z,65.62
2019-05-26T03:22:19.794Z,65.62
2019-05-26T03:27:24.297Z,65.31
2019-05-26T03:32:28.573Z,65.71
2019-05-26T03:37:32.761Z,65.78
2019-05-26T03:42:37.101Z,65.78
2019-05-26T03:47:41.340Z,65.98
2019-05-26T03:52:45.567Z,66.04
2019-05-26T03:57:50.030Z,66.29
2019-05-26T04:02:54.324Z,66.46
2019-05-26T04:08:03.773Z,66.60
2019-05-26T04:13:04.777Z,66.92
2019-05-26T04:18:09.090Z,66.82
2019-05-26T04:23:13.549Z,67.18
2019-05-26T04:28:17.702Z,67.28
2019-05-26T04:33:21.991Z,67.29
2019-05-26T04:38:26.232Z,67.17
2019-05-26T04:43:30.445Z,67.29
2019-05-26T04:48:34.858Z,67.89
2019-05-26T04:53:39.302Z,68.00
2019-05-26T04:58:43.726Z,67.65
2019-05-26T05:03:47.992Z,67.65
2019-05-26T05:08:52.369Z,67.77
2019-05-26T05:13:56.672Z,67.70
2019-05-26T05:19:00.981Z,67.70
2019-05-26T05:24:05.238Z,68.12
2019-05-26T05:29:09.384Z,68.12
2019-05-26T05:34:13.482Z,68.39
2019-05-26T05:39:17.750Z,68.44
2019-05-26T05:44:21.918Z,68.28
2019-05-26T05:49:26.031Z,68.17
2019-05-26T05:54:30.272Z,68.17
2019-05-26T05:59:34.413Z,68.34
2019-05-26T06:04:38.761Z,68.72
2019-05-26T06:09:42.965Z,68.72
2019-05-26T06:14:47.308Z,68.39
2019-05-26T06:19:51.635Z,68.36
2019-05-26T06:24:55.944Z,68.04
2019-05-26T06:30:00.260Z,68.70
2019-05-26T06:35:05.373Z,68.31
2019-05-26T06:40:09.782Z,67.95
2019-05-26T06:45:14.180Z,67.95
2019-05-26T06:50:19.249Z,68.32
2019-05-26T06:55:23.478Z,68.51
2019-05-26T07:00:27.683Z,68.31
2019-05-26T07:05:31.750Z,68.31
2019-05-26T07:10:35.802Z,60.83
2019-05-26T07:15:39.829Z,59.27
2019-05-26T07:20:43.943Z,59.27
2019-05-26T07:25:47.988Z,60.14
2019-05-26T07:30:52.114Z,59.87
2019-05-26T07:35:56.145Z,59.17
2019-05-26T07:41:00.251Z,58.40
2019-05-26T07:46:04.407Z,58.54
2019-05-26T07:51:16.612Z,58.86
2019-05-26T07:56:20.834Z,60.29
2019-05-26T08:01:34.926Z,59.99
2019-05-26T08:06:31.041Z,58.93
2019-05-26T08:11:35.184Z,59.05
2019-05-26T08:16:39.355Z,59.96
2019-05-26T08:21:43.526Z,60.33
2019-05-26T08:26:47.614Z,58.92
2019-05-26T08:31:51.873Z,57.19
2019-05-26T08:36:56.024Z,57.19
2019-05-26T08:42:00.170Z,56.82
2019-05-26T08:47:04.441Z,56.82
2019-05-26T08:52:08.682Z,55.82
2019-05-26T08:57:12.751Z,57.08
2019-05-26T09:02:16.998Z,57.08
2019-05-26T09:07:21.139Z,57.57
2019-05-26T09:12:25.398Z,57.16
2019-05-26T09:17:29.565Z,58.42
2019-05-26T09:22:33.749Z,58.06
2019-05-26T09:27:37.869Z,58.27
2019-05-26T09:32:41.955Z,57.54
2019-05-26T09:37:46.654Z,57.85
2019-05-26T09:42:50.828Z,57.91
2019-05-26T09:47:56.774Z,57.91
2019-05-26T09:53:00.964Z,56.14
2019-05-26T09:58:05.147Z,57.08
2019-05-26T10:03:09.259Z,59.04
2019-05-26T10:08:13.270Z,59.04
2019-05-26T10:13:30.953Z,58.37
2019-05-26T10:18:23.406Z,57.26
2019-05-26T10:23:27.733Z,56.29
2019-05-26T10:28:34.000Z,55.33
2019-05-26T10:33:38.379Z,55.20
2019-05-26T10:38:42.782Z,56.70
2019-05-26T10:43:47.939Z,55.77
2019-05-26T10:48:52.482Z,56.30
2019-05-26T10:53:56.914Z,57.29
2019-05-26T10:59:01.339Z,56.29
2019-05-26T11:04:05.803Z,56.15
2019-05-26T11:09:10.120Z,55.14
2019-05-26T11:14:14.326Z,55.67
2019-05-26T11:19:18.500Z,55.49
2019-05-26T11:24:22.694Z,54.92
2019-05-26T11:29:26.697Z,54.83
2019-05-26T11:34:30.712Z,54.83
2019-05-26T11:39:34.746Z,54.60
2019-05-26T11:44:38.906Z,54.36
2019-05-26T11:49:42.962Z,54.47
2019-05-26T11:54:47.005Z,54.61
2019-05-26T11:59:51.012Z,54.63
2019-05-26T12:04:55.033Z,54.44
2019-05-26T12:09:59.041Z,55.12
2019-05-26T12:15:03.256Z,55.48
2019-05-26T12:20:08.170Z,55.53
2019-05-26T12:25:12.673Z,55.53
2019-05-26T12:30:17.741Z,55.94
2019-05-26T12:35:21.832Z,55.94
2019-05-26T12:40:25.949Z,56.24
2019-05-26T12:45:29.956Z,56.36
2019-05-26T12:50:34.136Z,56.40
2019-05-26T12:55:38.229Z,56.66
2019-05-26T13:00:48.813Z,56.66
2019-05-26T13:05:48.103Z,57.00
2019-05-26T13:10:52.214Z,56.83
2019-05-26T13:15:56.321Z,57.01
2019-05-26T13:21:00.342Z,56.84
2019-05-26T13:26:04.425Z,57.14
2019-05-26T13:31:08.457Z,57.14
2019-05-26T13:36:12.569Z,57.13
2019-05-26T13:41:16.584Z,57.48
2019-05-26T13:46:57.260Z,57.87
2019-05-26T13:51:36.812Z,57.87
2019-05-26T13:56:44.822Z,57.85
2019-05-26T14:01:49.184Z,57.71
2019-05-26T14:06:53.635Z,57.71
2019-05-26T14:33:59.719Z,58.08
2019-05-26T14:39:02.432Z,58.24
2019-05-26T14:44:07.631Z,58.20
2019-05-26T14:49:12.359Z,58.20
2019-05-26T14:54:18.471Z,58.41
2019-05-26T14:59:26.084Z,58.76
2019-05-26T15:04:54.618Z,58.76
2019-05-26T15:09:38.031Z,58.24
2019-05-26T15:14:42.418Z,58.22
2019-05-26T15:19:46.732Z,58.62
2019-05-26T15:24:50.989Z,58.16
2019-05-26T15:29:55.184Z,58.36
2019-05-26T15:34:59.247Z,58.36
2019-05-26T15:40:04.948Z,58.23
2019-05-26T15:45:11.713Z,58.06
2019-05-26T15:50:27.129Z,58.34
2019-05-26T15:56:13.494Z,57.96
2019-05-26T16:01:19.514Z,58.20
2019-05-26T16:06:25.934Z,58.20
2019-05-26T16:11:30.460Z,58.20
2019-05-26T16:16:41.209Z,58.24
2019-05-26T16:21:40.190Z,58.57
2019-05-26T16:26:44.205Z,58.63
2019-05-26T16:31:48.352Z,58.75
2019-05-26T16:36:52.480Z,58.70
2019-05-26T16:41:56.567Z,58.60
2019-05-26T16:47:00.661Z,58.62
2019-05-26T16:52:04.852Z,58.82
2019-05-26T16:57:09.078Z,58.72
2019-05-26T17:02:13.271Z,58.82
2019-05-26T17:07:17.372Z,58.82
2019-05-26T17:12:21.400Z,58.82
2019-05-26T17:17:25.513Z,59.00
2019-05-26T17:22:29.534Z,58.89
2019-05-26T17:27:33.560Z,59.08
2019-05-26T17:32:37.832Z,59.21
2019-05-26T17:37:41.831Z,57.79
2019-05-26T17:42:46.563Z,58.63
2019-05-26T17:47:50.574Z,58.63
2019-05-26T17:52:54.636Z,58.63
2019-05-26T17:57:58.686Z,58.32
2019-05-26T18:03:02.709Z,58.17
2019-05-26T18:08:06.749Z,58.22
2019-05-26T18:13:10.774Z,58.44
2019-05-26T18:18:14.964Z,58.21
2019-05-26T18:23:19.024Z,58.66
2019-05-26T18:28:23.067Z,58.22
2019-05-26T18:33:27.237Z,58.41
2019-05-26T18:38:31.306Z,58.83
2019-05-26T18:43:35.341Z,58.67
2019-05-26T18:48:39.408Z,58.75
2019-05-26T18:53:43.464Z,58.63
2019-05-26T18:58:47.692Z,58.63
2019-05-26T19:03:51.737Z,58.89
2019-05-26T19:08:56.027Z,58.82
2019-05-26T19:14:00.057Z,58.89
2019-05-26T19:19:04.350Z,59.03
2019-05-26T19:24:16.290Z,59.10
2019-05-26T19:29:20.529Z,59.10
2019-05-26T19:34:24.724Z,58.93
2019-05-26T19:39:28.840Z,59.19
2019-05-26T19:44:32.966Z,59.50
2019-05-26T19:49:37.133Z,59.47
2019-05-26T19:54:41.211Z,59.59
2019-05-26T19:59:45.277Z,59.59
2019-05-26T20:04:49.460Z,59.41
2019-05-26T20:09:53.500Z,59.41
2019-05-26T20:14:57.617Z,60.05
2019-05-26T20:20:01.775Z,60.34
2019-05-26T20:25:07.050Z,60.34
2019-05-26T20:30:12.833Z,60.54
2019-05-26T20:35:17.111Z,60.40
2019-05-26T20:40:21.145Z,60.15
2019-05-26T20:45:25.237Z,60.15
2019-05-26T20:50:30.069Z,60.10
2019-05-26T20:55:34.345Z,60.10
2019-05-26T21:00:38.434Z,60.28
2019-05-26T21:05:42.475Z,60.48
2019-05-26T21:10:46.498Z,60.54
2019-05-26T21:15:50.517Z,60.51
2019-05-26T21:20:54.541Z,60.51
2019-05-26T21:25:58.625Z,60.79
2019-05-26T21:31:02.644Z,60.79
2019-05-26T21:36:06.723Z,60.90
2019-05-26T21:41:10.778Z,61.01
2019-05-26T21:46:14.831Z,61.16
2019-05-26T21:51:18.858Z,61.16
2019-05-26T21:56:22.955Z,61.16
2019-05-26T22:01:27.306Z,61.28
2019-05-26T22:06:31.532Z,61.28
2019-05-26T22:11:35.682Z,61.45
2019-05-26T22:16:39.888Z,61.76
2019-05-26T22:21:43.917Z,61.54
2019-05-26T22:26:48.043Z,61.53
2019-05-26T22:31:52.178Z,61.64
2019-05-26T22:36:56.379Z,61.61
2019-05-26T22:42:00.423Z,61.87
2019-05-26T22:47:04.533Z,61.85
2019-05-26T22:52:08.567Z,62.05
2019-05-26T22:57:12.617Z,62.09
2019-05-26T23:02:16.821Z,62.09
2019-05-26T23:07:20.883Z,62.00
2019-05-26T23:12:24.994Z,62.74
2019-05-26T23:17:29.125Z,62.45
2019-05-26T23:22:33.263Z,62.64
2019-05-26T23:27:37.301Z,62.81
2019-05-26T23:32:41.529Z,62.89
2019-05-26T23:37:45.671Z,62.89
2019-05-26T23:42:49.888Z,62.75
2019-05-26T23:47:54.003Z,62.75
2019-05-26T23:52:58.066Z,62.70
2019-05-26T23:58:02.112Z,62.70
